Time;durP1;ratioP1;P1;durP2;ratioP2;P2;SDS_P1;SDS_P2;PMS_P1;PMS_P2;Temp;Humidity;BMP_temperature;BMP_pressure;BME280_temperature;BME280_humidity;BME280_pressure;Samples;Min_cycle;Max_cycle;Signal;HPM_P1;HPM_P2
2022/04/23 00:00:14;;;;;;;13.82;4.32;;;;;;;;;;4975568;28;20022;-55
2022/04/23 00:02:42;;;;;;;12.43;3.92;;;;;;;;;;4976166;28;20363;-54
2022/04/23 00:05:08;;;;;;;13.10;4.20;;;;;;;;;;4975586;28;20444;-51
2022/04/23 00:07:35;;;;;;;15.55;5.38;;;;;;;;;;4975329;28;20085;-53
2022/04/23 00:10:01;;;;;;;15.02;5.05;;;;;;;;;;4976053;28;20030;-48
2022/04/23 00:12:27;;;;;;;17.90;6.32;;;;;;;;;;4975387;28;20050;-55
2022/04/23 00:14:53;;;;;;;20.77;6.70;;;;;;;;;;4975493;28;20026;-48
2022/04/23 00:17:20;;;;;;;22.02;6.90;;;;;;;;;;4975507;28;20045;-51
2022/04/23 00:19:47;;;;;;;16.05;4.40;;;;;;;;;;4975169;28;20109;-48
2022/04/23 00:22:15;;;;;;;10.88;4.47;;;;;;;;;;4975388;28;20062;-54
2022/04/23 00:24:42;;;;;;;12.30;4.28;;;;;;;;;;4975815;28;20094;-53
2022/04/23 00:27:08;;;;;;;15.40;5.40;;;;;;;;;;4975250;28;20460;-48
2022/04/23 00:29:35;;;;;;;19.25;6.50;;;;;;;;;;4975447;28;20042;-52
2022/04/23 00:32:02;;;;;;;20.27;6.20;;;;;;;;;;4975344;28;20376;-51
2022/04/23 00:34:28;;;;;;;16.83;5.75;;;;;;;;;;4975138;28;20389;-52
2022/04/23 00:36:55;;;;;;;17.88;6.07;;;;;;;;;;4974583;28;20134;-49
2022/04/23 00:39:21;;;;;;;14.93;5.93;;;;;;;;;;4975353;28;20027;-56
2022/04/23 00:41:47;;;;;;;23.08;7.47;;;;;;;;;;4974674;28;20031;-51
2022/04/23 00:44:14;;;;;;;15.13;6.35;;;;;;;;;;4975193;28;20015;-51
2022/04/23 00:46:40;;;;;;;20.27;7.18;;;;;;;;;;4975652;28;20114;-52
2022/04/23 00:49:06;;;;;;;19.67;5.40;;;;;;;;;;4974518;28;20023;-51
2022/04/23 00:51:33;;;;;;;15.07;5.63;;;;;;;;;;4975015;28;20027;-51
2022/04/23 00:54:01;;;;;;;23.45;6.28;;;;;;;;;;4975158;28;20041;-50
2022/04/23 00:56:27;;;;;;;13.95;5.47;;;;;;;;;;4974453;28;20031;-50
2022/04/23 00:58:53;;;;;;;13.02;4.60;;;;;;;;;;4974969;28;20023;-48
2022/04/23 01:01:23;;;;;;;14.70;5.05;;;;;;;;;;4975114;28;20027;-51
2022/04/23 01:03:50;;;;;;;10.43;4.03;;;;;;;;;;4974620;28;20022;-50
2022/04/23 01:06:16;;;;;;;14.20;3.85;;;;;;;;;;4974898;28;20052;-50
2022/04/23 01:08:42;;;;;;;11.73;3.40;;;;;;;;;;4974637;28;20034;-51
2022/04/23 01:11:09;;;;;;;16.80;3.70;;;;;;;;;;4974657;28;20030;-54
2022/04/23 01:13:35;;;;;;;10.45;3.05;;;;;;;;;;4975207;28;20036;-52
2022/04/23 01:16:02;;;;;;;9.18;2.97;;;;;;;;;;4974700;28;20523;-47
2022/04/23 01:18:28;;;;;;;13.73;3.33;;;;;;;;;;4974676;28;20043;-48
2022/04/23 01:20:58;;;;;;;13.38;3.33;;;;;;;;;;4974830;28;20098;-50
2022/04/23 01:23:24;;;;;;;14.88;3.70;;;;;;;;;;4974945;28;20106;-54
2022/04/23 01:25:52;;;;;;;13.07;3.63;;;;;;;;;;4974845;28;20038;-53
2022/04/23 01:28:20;;;;;;;14.18;3.42;;;;;;;;;;4974768;28;20027;-48
2022/04/23 01:30:48;;;;;;;14.25;4.13;;;;;;;;;;4974296;28;20030;-54
2022/04/23 01:33:15;;;;;;;12.77;3.88;;;;;;;;;;4974804;28;20384;-50
2022/04/23 01:35:41;;;;;;;12.93;3.65;;;;;;;;;;4974387;28;20506;-56
2022/04/23 01:38:07;;;;;;;11.25;3.72;;;;;;;;;;4974081;28;20027;-56
2022/04/23 01:40:33;;;;;;;15.75;3.55;;;;;;;;;;4974568;28;20019;-53
2022/04/23 01:42:59;;;;;;;11.98;3.42;;;;;;;;;;4974323;28;20026;-55
2022/04/23 01:45:25;;;;;;;12.63;3.53;;;;;;;;;;4974239;28;20023;-52
2022/04/23 01:47:51;;;;;;;12.02;3.20;;;;;;;;;;4974572;28;20030;-51
2022/04/23 01:50:18;;;;;;;11.35;3.28;;;;;;;;;;4977894;28;20038;-56
2022/04/23 01:52:44;;;;;;;14.07;3.22;;;;;;;;;;4978179;28;20034;-53
2022/04/23 01:55:10;;;;;;;11.13;3.25;;;;;;;;;;4978008;28;20384;-56
2022/04/23 01:57:37;;;;;;;10.10;4.07;;;;;;;;;;4978089;28;20019;-54
2022/04/23 02:00:05;;;;;;;10.35;3.63;;;;;;;;;;4977981;28;20388;-49
2022/04/23 02:02:31;;;;;;;11.48;3.13;;;;;;;;;;4978369;28;20380;-56
2022/04/23 02:04:58;;;;;;;9.57;3.17;;;;;;;;;;4977647;28;20019;-50
2022/04/23 02:07:24;;;;;;;13.38;3.78;;;;;;;;;;4977817;28;20109;-53
2022/04/23 02:09:51;;;;;;;14.45;4.10;;;;;;;;;;4977884;28;20022;-55
2022/04/23 02:12:17;;;;;;;13.10;3.80;;;;;;;;;;4977811;28;20492;-51
2022/04/23 02:14:44;;;;;;;13.82;5.18;;;;;;;;;;4978266;28;20041;-52
2022/04/23 02:17:10;;;;;;;13.05;3.97;;;;;;;;;;4977819;28;20031;-50
2022/04/23 02:19:37;;;;;;;13.65;4.40;;;;;;;;;;4977281;28;20015;-49
2022/04/23 02:22:03;;;;;;;14.95;5.00;;;;;;;;;;4978108;28;20106;-52
2022/04/23 02:24:30;;;;;;;14.85;4.32;;;;;;;;;;4977796;28;20018;-49
2022/04/23 02:26:57;;;;;;;12.85;4.45;;;;;;;;;;4979212;28;20041;-50
2022/04/23 02:29:23;;;;;;;12.40;4.78;;;;;;;;;;4980082;28;20022;-53
2022/04/23 02:31:49;;;;;;;13.38;4.50;;;;;;;;;;4979776;28;20019;-53
2022/04/23 02:34:16;;;;;;;9.95;4.03;;;;;;;;;;4979103;28;20105;-54
2022/04/23 02:36:43;;;;;;;11.50;3.55;;;;;;;;;;4979072;28;20480;-51
2022/04/23 02:39:09;;;;;;;11.35;3.95;;;;;;;;;;4979477;28;20035;-47
2022/04/23 02:41:36;;;;;;;15.40;4.75;;;;;;;;;;4978088;28;20037;-55
2022/04/23 02:44:03;;;;;;;16.55;6.63;;;;;;;;;;4977531;28;20019;-55
2022/04/23 02:46:29;;;;;;;16.08;5.93;;;;;;;;;;4976783;28;20027;-56
2022/04/23 02:48:55;;;;;;;15.63;8.63;;;;;;;;;;4977093;28;20098;-54
2022/04/23 02:51:22;;;;;;;14.68;6.90;;;;;;;;;;4977502;28;20503;-55
2022/04/23 02:53:48;;;;;;;16.27;6.75;;;;;;;;;;4977020;28;20024;-51
2022/04/23 02:56:16;;;;;;;17.52;6.38;;;;;;;;;;4977279;28;20102;-53
2022/04/23 02:58:43;;;;;;;10.80;6.65;;;;;;;;;;4976920;28;20027;-52
2022/04/23 03:01:10;;;;;;;16.10;6.55;;;;;;;;;;4977083;28;20027;-55
2022/04/23 03:03:43;;;;;;;16.60;6.47;;;;;;;;;;4977175;28;20023;-51
2022/04/23 03:06:10;;;;;;;16.88;6.65;;;;;;;;;;4976827;28;20469;-52
2022/04/23 03:08:37;;;;;;;17.35;7.20;;;;;;;;;;4976341;28;20014;-53
2022/04/23 03:11:05;;;;;;;19.00;6.35;;;;;;;;;;4977060;28;20027;-53
2022/04/23 03:13:34;;;;;;;19.10;7.80;;;;;;;;;;4976591;28;20031;-55
2022/04/23 03:16:01;;;;;;;16.17;7.60;;;;;;;;;;4976246;28;20038;-53
2022/04/23 03:18:28;;;;;;;14.60;7.15;;;;;;;;;;4977005;28;20027;-52
2022/04/23 03:20:55;;;;;;;16.17;8.43;;;;;;;;;;4977054;28;20027;-53
2022/04/23 03:23:21;;;;;;;22.98;14.05;;;;;;;;;;4976019;28;20423;-55
2022/04/23 03:25:48;;;;;;;19.02;9.05;;;;;;;;;;4976583;28;20029;-57
2022/04/23 03:28:14;;;;;;;17.02;9.15;;;;;;;;;;4976536;28;20424;-54
2022/04/23 03:30:41;;;;;;;15.95;9.10;;;;;;;;;;4975978;28;20090;-56
2022/04/23 03:33:09;;;;;;;14.50;7.97;;;;;;;;;;4976167;28;20023;-56
2022/04/23 03:35:35;;;;;;;14.27;7.25;;;;;;;;;;4958523;28;20059;-57
2022/04/23 03:38:03;;;;;;;16.65;8.05;;;;;;;;;;4976153;28;20027;-52
2022/04/23 03:40:29;;;;;;;15.32;7.25;;;;;;;;;;4976376;28;20023;-56
2022/04/23 03:42:55;;;;;;;18.42;7.68;;;;;;;;;;4976059;28;20034;-56
2022/04/23 03:45:23;;;;;;;17.83;7.65;;;;;;;;;;4976268;28;20089;-54
2022/04/23 03:47:49;;;;;;;19.48;8.85;;;;;;;;;;4975871;28;20042;-54
2022/04/23 03:50:16;;;;;;;16.48;6.97;;;;;;;;;;4975862;28;20037;-57
2022/04/23 03:52:42;;;;;;;18.02;7.10;;;;;;;;;;4976082;28;20134;-53
2022/04/23 03:55:09;;;;;;;14.02;6.78;;;;;;;;;;4976617;28;20109;-52
2022/04/23 03:57:44;;;;;;;12.18;6.10;;;;;;;;;;4975531;28;20026;-55
2022/04/23 04:00:11;;;;;;;13.98;5.95;;;;;;;;;;4975850;28;20157;-54
2022/04/23 04:02:37;;;;;;;12.63;5.68;;;;;;;;;;4975843;28;20097;-53
2022/04/23 04:05:04;;;;;;;11.57;5.07;;;;;;;;;;4975907;28;20050;-51
2022/04/23 04:07:30;;;;;;;12.13;4.70;;;;;;;;;;4975781;28;20019;-52
2022/04/23 04:09:56;;;;;;;14.10;5.72;;;;;;;;;;4975640;28;20392;-56
2022/04/23 04:12:23;;;;;;;13.57;5.50;;;;;;;;;;4974377;28;20393;-58
2022/04/23 04:14:49;;;;;;;11.35;5.10;;;;;;;;;;4975729;28;20023;-51
2022/04/23 04:17:15;;;;;;;12.85;6.22;;;;;;;;;;4975570;28;20403;-55
2022/04/23 04:19:42;;;;;;;23.08;7.82;;;;;;;;;;4975369;28;20038;-54
2022/04/23 04:22:08;;;;;;;16.35;6.68;;;;;;;;;;4975171;28;20076;-54
2022/04/23 04:24:35;;;;;;;15.38;6.68;;;;;;;;;;4974450;28;20031;-57
2022/04/23 04:27:01;;;;;;;18.83;6.03;;;;;;;;;;4975244;28;20026;-55
2022/04/23 04:29:28;;;;;;;13.73;5.55;;;;;;;;;;4975265;28;20023;-53
2022/04/23 04:31:54;;;;;;;11.50;4.63;;;;;;;;;;4975146;28;20042;-54
2022/04/23 04:34:25;;;;;;;24.42;6.28;;;;;;;;;;4975590;28;20122;-55
2022/04/23 04:36:52;;;;;;;13.23;5.45;;;;;;;;;;4975467;28;20495;-56
2022/04/23 04:39:18;;;;;;;17.35;6.40;;;;;;;;;;4975099;28;20026;-52
2022/04/23 04:41:49;;;;;;;12.80;5.20;;;;;;;;;;4975071;28;20450;-53
2022/04/23 04:44:16;;;;;;;18.30;5.90;;;;;;;;;;4975115;28;20038;-56
2022/04/23 04:46:42;;;;;;;14.40;5.20;;;;;;;;;;4957687;28;20113;-56
2022/04/23 04:49:08;;;;;;;16.02;4.80;;;;;;;;;;4975311;28;20023;-53
2022/04/23 04:51:36;;;;;;;12.30;5.30;;;;;;;;;;4975303;28;20023;-54
2022/04/23 04:54:03;;;;;;;14.82;5.60;;;;;;;;;;4974507;28;20384;-54
2022/04/23 04:56:30;;;;;;;14.40;6.22;;;;;;;;;;4974719;28;20031;-56
2022/04/23 04:58:56;;;;;;;14.45;6.40;;;;;;;;;;4975001;28;20023;-53
2022/04/23 05:01:22;;;;;;;15.88;6.07;;;;;;;;;;4974813;28;20058;-49
2022/04/23 05:03:48;;;;;;;16.10;6.15;;;;;;;;;;4974659;28;20483;-48
2022/04/23 05:06:15;;;;;;;15.68;8.13;;;;;;;;;;4974599;28;20045;-52
2022/04/23 05:08:41;;;;;;;14.00;6.75;;;;;;;;;;4974683;28;20027;-52
2022/04/23 05:11:07;;;;;;;17.02;6.65;;;;;;;;;;4957665;28;20482;-51
2022/04/23 05:13:34;;;;;;;12.70;6.60;;;;;;;;;;4974286;28;20031;-47
2022/04/23 05:16:00;;;;;;;15.23;5.55;;;;;;;;;;4974585;28;20114;-50
2022/04/23 05:18:26;;;;;;;14.15;5.53;;;;;;;;;;4974453;28;20027;-55
2022/04/23 05:20:53;;;;;;;10.88;4.72;;;;;;;;;;4974289;28;20070;-56
2022/04/23 05:23:20;;;;;;;10.20;4.53;;;;;;;;;;4974341;28;20023;-52
2022/04/23 05:25:46;;;;;;;9.85;5.18;;;;;;;;;;4974553;28;20022;-56
2022/04/23 05:28:12;;;;;;;9.52;4.10;;;;;;;;;;4974483;28;20365;-49
2022/04/23 05:30:38;;;;;;;11.05;3.90;;;;;;;;;;4973917;28;20089;-55
2022/04/23 05:33:08;;;;;;;13.68;3.97;;;;;;;;;;4973325;28;20030;-52
2022/04/23 05:35:34;;;;;;;8.60;3.80;;;;;;;;;;4973356;28;20046;-53
2022/04/23 05:38:01;;;;;;;15.38;6.32;;;;;;;;;;4974741;28;20034;-53
2022/04/23 05:40:27;;;;;;;18.25;9.90;;;;;;;;;;4973640;28;20174;-52
2022/04/23 05:42:57;;;;;;;11.18;6.40;;;;;;;;;;4974634;28;20488;-55
2022/04/23 05:45:23;;;;;;;7.97;4.47;;;;;;;;;;4974774;28;20030;-51
2022/04/23 05:47:50;;;;;;;10.85;4.47;;;;;;;;;;4974641;28;20027;-56
2022/04/23 05:50:16;;;;;;;15.88;5.28;;;;;;;;;;4974516;28;20054;-53
2022/04/23 05:52:42;;;;;;;8.68;4.13;;;;;;;;;;4974600;28;20077;-50
2022/04/23 05:55:08;;;;;;;9.32;4.55;;;;;;;;;;4974266;28;20471;-51
2022/04/23 05:57:35;;;;;;;13.27;4.38;;;;;;;;;;4973905;28;20078;-53
2022/04/23 06:00:01;;;;;;;11.10;2.75;;;;;;;;;;4975048;28;20031;-55
2022/04/23 06:02:27;;;;;;;6.70;3.03;;;;;;;;;;4973973;28;20023;-56
2022/04/23 06:04:53;;;;;;;6.88;2.50;;;;;;;;;;4974304;28;20388;-47
2022/04/23 06:07:19;;;;;;;7.20;2.25;;;;;;;;;;4974370;28;20485;-49
2022/04/23 06:09:47;;;;;;;6.72;2.20;;;;;;;;;;4974036;28;20033;-61
2022/04/23 06:12:13;;;;;;;8.02;3.47;;;;;;;;;;4974107;28;20065;-53
2022/04/23 06:14:40;;;;;;;7.47;3.22;;;;;;;;;;4973966;28;20019;-60
2022/04/23 06:17:11;;;;;;;9.15;4.22;;;;;;;;;;4973652;28;20026;-54
2022/04/23 06:19:38;;;;;;;10.45;4.00;;;;;;;;;;4957547;28;20027;-54
2022/04/23 06:22:04;;;;;;;10.70;4.03;;;;;;;;;;4973723;28;20077;-51
2022/04/23 06:24:31;;;;;;;7.95;3.40;;;;;;;;;;4973821;28;20461;-52
2022/04/23 06:26:57;;;;;;;9.10;3.75;;;;;;;;;;4974101;28;20031;-53
2022/04/23 06:29:24;;;;;;;14.38;5.13;;;;;;;;;;4973724;28;20475;-54
2022/04/23 06:31:50;;;;;;;11.43;5.57;;;;;;;;;;4973205;28;20027;-54
2022/04/23 06:34:16;;;;;;;9.32;4.85;;;;;;;;;;4963985;28;20043;-55
2022/04/23 06:37:03;;;;;;;10.48;5.07;;;;;;;;;;4975972;28;20031;-59
2022/04/23 06:39:45;;;;;;;9.95;4.22;;;;;;;;;;4973275;28;20030;-54
2022/04/23 06:42:11;;;;;;;6.60;2.15;;;;;;;;;;4975739;28;20482;-56
2022/04/23 06:44:38;;;;;;;5.53;2.30;;;;;;;;;;4974675;28;20367;-52
2022/04/23 06:47:04;;;;;;;6.32;2.55;;;;;;;;;;4975092;28;20504;-56
2022/04/23 06:49:30;;;;;;;6.65;2.20;;;;;;;;;;4975076;28;20019;-54
2022/04/23 06:51:57;;;;;;;6.32;1.98;;;;;;;;;;4975089;28;20035;-55
2022/04/23 06:54:27;;;;;;;7.78;2.42;;;;;;;;;;4975551;28;20055;-53
2022/04/23 06:56:56;;;;;;;3.53;1.30;;;;;;;;;;4975583;28;20030;-54
2022/04/23 06:59:23;;;;;;;7.35;1.77;;;;;;;;;;4975967;28;20031;-57
2022/04/23 07:01:50;;;;;;;4.68;1.45;;;;;;;;;;4975932;28;20383;-53
2022/04/23 07:04:16;;;;;;;4.70;1.52;;;;;;;;;;4976869;28;20452;-56
2022/04/23 07:06:43;;;;;;;9.85;2.05;;;;;;;;;;4976105;28;20050;-58
2022/04/23 07:09:09;;;;;;;5.43;1.48;;;;;;;;;;4976663;28;20035;-53
2022/04/23 07:11:36;;;;;;;6.13;1.83;;;;;;;;;;4976336;28;20027;-50
2022/04/23 07:14:02;;;;;;;8.60;1.73;;;;;;;;;;4975798;28;20465;-56
2022/04/23 07:16:32;;;;;;;12.15;4.18;;;;;;;;;;4958645;28;20041;-58
2022/04/23 07:19:00;;;;;;;9.18;2.47;;;;;;;;;;4972973;28;20030;-50
2022/04/23 07:21:27;;;;;;;3.00;1.63;;;;;;;;;;4974048;28;20018;-50
2022/04/23 07:24:10;;;;;;;4.70;1.63;;;;;;;;;;4975585;28;20022;-52
2022/04/23 07:26:37;;;;;;;9.23;2.75;;;;;;;;;;4972605;28;20503;-49
2022/04/23 07:29:08;;;;;;;5.15;1.88;;;;;;;;;;4974654;28;20034;-55
2022/04/23 07:31:34;;;;;;;4.15;1.35;;;;;;;;;;4976032;28;20019;-56
2022/04/23 07:39:31;;;;;;;4.90;1.77;;;;;;;;;;4975138;28;20506;-55
2022/04/23 07:41:58;;;;;;;4.75;1.50;;;;;;;;;;4975519;28;20046;-56
2022/04/23 07:44:26;;;;;;;3.25;1.40;;;;;;;;;;4975626;28;20052;-50
2022/04/23 07:46:52;;;;;;;5.70;1.70;;;;;;;;;;4971235;28;20383;-52
2022/04/23 07:49:19;;;;;;;4.93;1.85;;;;;;;;;;4965253;28;20023;-49
2022/04/23 07:51:49;;;;;;;3.55;1.30;;;;;;;;;;4974724;28;20373;-51
2022/04/23 07:54:16;;;;;;;4.65;1.83;;;;;;;;;;4974749;28;20030;-57
2022/04/23 07:56:43;;;;;;;5.10;2.00;;;;;;;;;;4974160;28;20081;-52
2022/04/23 07:59:11;;;;;;;7.97;2.38;;;;;;;;;;4974320;28;20371;-58
2022/04/23 08:01:37;;;;;;;8.65;2.75;;;;;;;;;;4974573;28;20050;-50
2022/04/23 08:04:34;;;;;;;12.43;2.45;;;;;;;;;;4965265;28;20025;-54
2022/04/23 08:07:00;;;;;;;4.78;2.15;;;;;;;;;;4972016;28;20025;-52
2022/04/23 08:09:27;;;;;;;4.28;2.08;;;;;;;;;;4973510;28;20035;-55
2022/04/23 08:11:55;;;;;;;7.47;2.47;;;;;;;;;;4974839;28;20023;-57
2022/04/23 08:14:22;;;;;;;5.63;2.20;;;;;;;;;;4974354;28;20022;-49
2022/04/23 08:16:50;;;;;;;10.30;2.72;;;;;;;;;;4973292;28;20035;-48
2022/04/23 08:19:30;;;;;;;4.85;1.80;;;;;;;;;;4974288;28;20118;-56
2022/04/23 08:22:02;;;;;;;4.68;1.60;;;;;;;;;;4974388;28;20026;-52
2022/04/23 08:24:30;;;;;;;13.00;2.63;;;;;;;;;;4956622;28;20467;-51
2022/04/23 08:26:56;;;;;;;6.95;1.90;;;;;;;;;;4975279;28;20031;-50
2022/04/23 08:32:07;;;;;;;3.55;1.45;;;;;;;;;;4975422;28;20034;-50
2022/04/23 08:34:34;;;;;;;7.22;1.80;;;;;;;;;;4975273;28;20104;-52
2022/04/23 08:37:01;;;;;;;4.40;1.30;;;;;;;;;;4973840;28;20034;-64
2022/04/23 08:39:27;;;;;;;4.45;1.42;;;;;;;;;;4975187;28;20468;-49
2022/04/23 08:41:53;;;;;;;4.88;1.55;;;;;;;;;;4975414;28;20035;-52
2022/04/23 08:44:21;;;;;;;5.07;1.23;;;;;;;;;;4974923;28;20069;-52
2022/04/23 08:46:49;;;;;;;6.53;2.00;;;;;;;;;;4974718;28;20046;-53
2022/04/23 08:49:16;;;;;;;8.02;4.63;;;;;;;;;;4975470;28;20027;-50
2022/04/23 08:51:51;;;;;;;4.70;2.55;;;;;;;;;;4975201;28;20454;-53
2022/04/23 08:54:17;;;;;;;4.75;1.30;;;;;;;;;;4974822;28;20025;-52
2022/04/23 08:56:44;;;;;;;4.78;1.33;;;;;;;;;;4974732;28;20062;-52
2022/04/23 08:59:12;;;;;;;5.90;1.50;;;;;;;;;;4974094;28;20085;-54
2022/04/23 09:01:38;;;;;;;4.85;1.50;;;;;;;;;;4975181;28;20035;-53
2022/04/23 09:04:06;;;;;;;3.65;1.20;;;;;;;;;;4974948;28;20023;-53
2022/04/23 09:06:36;;;;;;;3.72;1.00;;;;;;;;;;4974809;28;20038;-55
2022/04/23 09:09:10;;;;;;;3.90;1.40;;;;;;;;;;4974736;28;20458;-56
2022/04/23 09:11:37;;;;;;;3.88;1.20;;;;;;;;;;4974753;28;20038;-55
2022/04/23 09:14:04;;;;;;;5.07;1.08;;;;;;;;;;4974964;28;20070;-53
2022/04/23 09:24:45;;;;;;;4.88;1.70;;;;;;;;;;4974768;28;20547;-52
2022/04/23 09:27:12;;;;;;;3.55;1.13;;;;;;;;;;4974333;28;20465;-49
2022/04/23 09:29:38;;;;;;;4.40;2.30;;;;;;;;;;4974108;28;20528;-50
2022/04/23 09:32:11;;;;;;;3.75;1.08;;;;;;;;;;4974325;28;20015;-56
2022/04/23 09:34:38;;;;;;;7.15;1.60;;;;;;;;;;4973540;28;20054;-51
2022/04/23 09:37:05;;;;;;;3.85;1.00;;;;;;;;;;4973958;28;20434;-55
2022/04/23 09:39:35;;;;;;;5.35;2.00;;;;;;;;;;4974208;28;20110;-54
2022/04/23 09:42:19;;;;;;;3.33;1.42;;;;;;;;;;4974187;28;20349;-52
2022/04/23 09:44:46;;;;;;;4.20;2.03;;;;;;;;;;4971709;28;20030;-56
2022/04/23 09:47:29;;;;;;;4.75;1.27;;;;;;;;;;4973748;28;20027;-55
2022/04/23 09:49:55;;;;;;;5.63;1.17;;;;;;;;;;4971202;28;20030;-54
2022/04/23 09:52:27;;;;;;;7.40;2.78;;;;;;;;;;4973366;28;20078;-51
2022/04/23 09:54:54;;;;;;;5.03;1.75;;;;;;;;;;4972288;28;20058;-48
2022/04/23 09:57:22;;;;;;;7.88;3.05;;;;;;;;;;4973495;28;20130;-53
2022/04/23 09:59:52;;;;;;;5.03;2.40;;;;;;;;;;4974032;28;20052;-46
2022/04/23 10:02:21;;;;;;;5.22;1.75;;;;;;;;;;4973056;28;20038;-52
2022/04/23 10:04:48;;;;;;;5.70;1.77;;;;;;;;;;4971088;28;20015;-47
2022/04/23 10:07:17;;;;;;;4.38;1.40;;;;;;;;;;4973016;28;20030;-52
2022/04/23 10:09:45;;;;;;;4.05;2.38;;;;;;;;;;4971169;28;20042;-53
2022/04/23 10:12:15;;;;;;;4.53;2.13;;;;;;;;;;4968843;28;20487;-52
2022/04/23 10:14:46;;;;;;;6.68;3.30;;;;;;;;;;4958829;29;20019;-50
2022/04/23 10:17:15;;;;;;;;;;;;;;;;;;4958944;29;20043;-54
2022/04/23 10:19:42;;;;;;;19.60;3.20;;;;;;;;;;4958406;29;19913;-48
2022/04/23 10:22:19;;;;;;;7.38;3.10;;;;;;;;;;4958107;29;20395;-54
2022/04/23 10:24:57;;;;;;;7.57;1.73;;;;;;;;;;4958469;29;20473;-50
2022/04/23 10:27:25;;;;;;;2.88;1.17;;;;;;;;;;4962399;28;20027;-54
2022/04/23 10:30:02;;;;;;;2.42;1.55;;;;;;;;;;4976832;28;20074;-52
2022/04/23 10:32:48;;;;;;;5.55;2.47;;;;;;;;;;4977348;28;20035;-49
2022/04/23 10:35:17;;;;;;;5.82;1.88;;;;;;;;;;4976981;28;20043;-52
2022/04/23 10:37:44;;;;;;;6.93;1.80;;;;;;;;;;4976718;28;20045;-50
2022/04/23 10:40:15;;;;;;;3.28;2.10;;;;;;;;;;4977636;28;20030;-49
2022/04/23 10:42:41;;;;;;;;;;;;;;;;;;4976975;28;20031;-51
2022/04/23 10:45:14;;;;;;;9.07;4.63;;;;;;;;;;4976469;28;19981;-49
2022/04/23 10:47:40;;;;;;;5.90;1.98;;;;;;;;;;4974937;28;20768;-50
2022/04/23 10:50:15;;;;;;;4.60;1.80;;;;;;;;;;4975686;28;20023;-50
2022/04/23 10:52:42;;;;;;;3.78;1.27;;;;;;;;;;4976109;28;20118;-52
2022/04/23 10:55:09;;;;;;;2.50;1.30;;;;;;;;;;4973433;28;20077;-53
2022/04/23 10:57:35;;;;;;;2.88;1.52;;;;;;;;;;4975697;28;20034;-49
2022/04/23 11:00:12;;;;;;;3.60;1.48;;;;;;;;;;4977134;28;20027;-50
2022/04/23 11:02:39;;;;;;;5.80;1.58;;;;;;;;;;4977249;28;20031;-53
2022/04/23 11:13:31;;;;;;;2.88;1.30;;;;;;;;;;4976385;28;20049;-48
2022/04/23 11:16:06;;;;;;;5.38;2.20;;;;;;;;;;4977203;28;20030;-49
2022/04/23 11:18:33;;;;;;;4.70;1.20;;;;;;;;;;4976461;28;20042;-51
2022/04/23 11:21:28;;;;;;;13.93;2.40;;;;;;;;;;4976486;28;20499;-51
2022/04/23 11:23:55;;;;;;;3.75;1.48;;;;;;;;;;4975008;28;20047;-51
2022/04/23 11:26:23;;;;;;;2.72;1.35;;;;;;;;;;4976549;28;20045;-50
2022/04/23 11:29:04;;;;;;;4.03;1.65;;;;;;;;;;4977076;28;20059;-53
2022/04/23 11:31:31;;;;;;;3.08;1.55;;;;;;;;;;4976256;28;20042;-51
2022/04/23 11:34:00;;;;;;;3.10;1.13;;;;;;;;;;4976341;28;20047;-53
2022/04/23 11:36:28;;;;;;;3.75;1.65;;;;;;;;;;4976169;28;20031;-50
2022/04/23 11:38:58;;;;;;;6.95;1.50;;;;;;;;;;4976043;28;20023;-53
2022/04/23 11:41:33;;;;;;;4.60;1.33;;;;;;;;;;4976639;28;20081;-51
2022/04/23 11:44:11;;;;;;;4.30;1.55;;;;;;;;;;4976406;28;20031;-52
2022/04/23 11:46:44;;;;;;;3.53;1.25;;;;;;;;;;4976222;28;20359;-51
2022/04/23 11:49:10;;;;;;;3.03;1.48;;;;;;;;;;4975962;28;20027;-49
2022/04/23 11:51:40;;;;;;;3.55;1.40;;;;;;;;;;4976223;28;20030;-50
2022/04/23 11:54:07;;;;;;;5.18;1.20;;;;;;;;;;4975795;28;20059;-49
2022/04/23 11:56:33;;;;;;;3.67;1.30;;;;;;;;;;4973995;28;20051;-54
2022/04/23 11:59:01;;;;;;;2.35;1.10;;;;;;;;;;4975557;28;20101;-53
2022/04/23 12:01:27;;;;;;;3.75;1.25;;;;;;;;;;4975356;28;20018;-50
2022/04/23 12:03:58;;;;;;;6.72;1.10;;;;;;;;;;4975328;28;20085;-51
2022/04/23 12:06:26;;;;;;;4.20;1.05;;;;;;;;;;4974368;28;20029;-53
2022/04/23 12:09:04;;;;;;;2.97;1.83;;;;;;;;;;4975103;28;20107;-51
2022/04/23 12:11:31;;;;;;;4.35;1.40;;;;;;;;;;4975738;28;20110;-55
2022/04/23 12:13:57;;;;;;;3.53;1.80;;;;;;;;;;4975712;28;20528;-53
2022/04/23 12:16:31;;;;;;;1.70;1.00;;;;;;;;;;4975865;28;20080;-50
2022/04/23 12:19:16;;;;;;;2.40;1.58;;;;;;;;;;4975545;28;20019;-55
2022/04/23 12:21:57;;;;;;;4.07;2.70;;;;;;;;;;4975259;28;20021;-49
2022/04/23 12:24:30;;;;;;;2.90;1.10;;;;;;;;;;4974161;28;20037;-48
2022/04/23 12:27:01;;;;;;;8.10;2.08;;;;;;;;;;4974017;28;20177;-56
2022/04/23 12:40:46;;;;;;;5.20;1.00;;;;;;;;;;4974071;28;20061;-50
2022/04/23 12:43:22;;;;;;;2.17;1.10;;;;;;;;;;4973511;28;20022;-52
2022/04/23 12:45:49;;;;;;;2.38;1.30;;;;;;;;;;4973283;28;20030;-51
2022/04/23 12:48:15;;;;;;;2.30;0.90;;;;;;;;;;4974082;28;20026;-51
2022/04/23 12:50:46;;;;;;;3.63;1.20;;;;;;;;;;4973771;28;20486;-52
2022/04/23 12:53:12;;;;;;;;;;;;;;;;;;4974160;28;20022;-59
2022/04/23 12:55:49;;;;;;;4.07;1.05;;;;;;;;;;4974639;28;20367;-52
2022/04/23 12:58:16;;;;;;;9.52;1.25;;;;;;;;;;4975271;28;20054;-51
2022/04/23 13:00:42;;;;;;;4.70;1.00;;;;;;;;;;4974041;28;20035;-52
2022/04/23 13:03:25;;;;;;;3.78;0.95;;;;;;;;;;4975110;28;20423;-50
2022/04/23 13:05:51;;;;;;;2.53;0.80;;;;;;;;;;4974851;28;20114;-50
2022/04/23 13:13:47;;;;;;;2.17;0.93;;;;;;;;;;4974236;28;20085;-50
2022/04/23 18:08:18;;;;;;;8.10;3.80;;;;;;;;;;6245147;23;20023;-52
2022/04/23 18:10:50;;;;;;;6.13;3.53;;;;;;;;;;6247176;23;20007;-52
2022/04/23 18:13:23;;;;;;;8.30;3.60;;;;;;;;;;6245603;23;20011;-55
2022/04/23 18:15:50;;;;;;;6.75;3.75;;;;;;;;;;6246156;22;20083;-52
2022/04/23 18:18:16;;;;;;;10.98;3.92;;;;;;;;;;6247893;23;20459;-58
2022/04/23 18:20:42;;;;;;;11.88;4.22;;;;;;;;;;6247236;23;20054;-59
2022/04/23 18:23:09;;;;;;;8.20;4.18;;;;;;;;;;6247293;23;20000;-53
2022/04/23 18:25:35;;;;;;;10.45;4.00;;;;;;;;;;6247730;22;20007;-57
2022/04/23 18:28:01;;;;;;;10.85;4.28;;;;;;;;;;6247485;23;20008;-55
2022/04/23 18:30:28;;;;;;;8.50;4.68;;;;;;;;;;6247190;23;19996;-52
2022/04/23 18:32:54;;;;;;;13.40;4.00;;;;;;;;;;6246657;23;20332;-58
2022/04/23 18:35:20;;;;;;;9.00;3.40;;;;;;;;;;6247021;23;20000;-54
2022/04/23 18:37:47;;;;;;;12.10;6.07;;;;;;;;;;6247118;23;20075;-55
2022/04/23 18:40:15;;;;;;;18.90;9.45;;;;;;;;;;6247375;23;20130;-55
2022/04/23 18:42:41;;;;;;;28.45;14.95;;;;;;;;;;6247483;23;19997;-55
2022/04/23 18:45:10;;;;;;;24.63;13.95;;;;;;;;;;6247032;23;20054;-54
2022/04/23 18:47:37;;;;;;;24.83;14.10;;;;;;;;;;6246924;23;20008;-54
2022/04/23 18:50:05;;;;;;;28.60;15.07;;;;;;;;;;6247176;23;20079;-57
2022/04/23 18:52:31;;;;;;;37.03;15.90;;;;;;;;;;6246228;22;20004;-52
2022/04/23 18:54:57;;;;;;;29.42;18.13;;;;;;;;;;6246881;23;20000;-55
2022/04/23 18:57:23;;;;;;;30.10;17.30;;;;;;;;;;6246988;23;20000;-57
2022/04/23 18:59:50;;;;;;;32.10;20.23;;;;;;;;;;6246630;23;20000;-60
2022/04/23 19:02:20;;;;;;;45.60;21.20;;;;;;;;;;6246493;22;20011;-58
2022/04/23 19:04:46;;;;;;;35.60;18.35;;;;;;;;;;6246209;22;20014;-57
2022/04/23 19:07:13;;;;;;;26.58;14.25;;;;;;;;;;6246304;23;20004;-57
2022/04/23 19:09:39;;;;;;;25.17;13.30;;;;;;;;;;6246748;23;20007;-61
2022/04/23 19:12:05;;;;;;;22.52;12.35;;;;;;;;;;6246417;23;20076;-53
2022/04/23 19:14:31;;;;;;;15.38;9.57;;;;;;;;;;6245739;23;20415;-63
2022/04/23 19:16:59;;;;;;;16.88;9.15;;;;;;;;;;6245157;23;20004;-61
2022/04/23 19:19:26;;;;;;;17.58;10.77;;;;;;;;;;6245347;22;20061;-61
2022/04/23 19:27:39;;;;;;;18.75;9.10;;;;;;;;;;6246203;23;20023;-58
2022/04/23 19:30:06;;;;;;;18.73;9.23;;;;;;;;;;6246776;22;20001;-60
2022/04/23 19:32:32;;;;;;;18.20;9.45;;;;;;;;;;6244764;22;20008;-59
2022/04/23 19:34:58;;;;;;;14.23;8.18;;;;;;;;;;6246159;23;19996;-60
2022/04/23 19:37:24;;;;;;;15.25;8.18;;;;;;;;;;6246150;23;20419;-61
2022/04/23 19:39:51;;;;;;;18.00;9.45;;;;;;;;;;6249159;23;20008;-60
2022/04/23 19:42:17;;;;;;;15.95;8.98;;;;;;;;;;6251160;23;20124;-60
2022/04/23 19:44:44;;;;;;;19.00;9.35;;;;;;;;;;6251232;23;20422;-57
2022/04/23 19:47:10;;;;;;;13.98;9.35;;;;;;;;;;6249341;23;20004;-59
2022/04/23 19:49:37;;;;;;;14.45;8.60;;;;;;;;;;6249931;23;20007;-55
2022/04/23 19:52:03;;;;;;;17.70;10.30;;;;;;;;;;6252731;23;19996;-57
2022/04/23 19:54:30;;;;;;;26.00;12.45;;;;;;;;;;6249502;23;20174;-60
2022/04/23 19:56:56;;;;;;;24.30;13.80;;;;;;;;;;6246886;23;20036;-58
2022/04/23 19:59:22;;;;;;;29.92;16.25;;;;;;;;;;6246630;23;20020;-60
2022/04/23 20:01:49;;;;;;;31.92;16.40;;;;;;;;;;6245517;23;20043;-58
2022/04/23 20:04:15;;;;;;;30.98;16.38;;;;;;;;;;6245694;23;20050;-59
2022/04/23 20:06:41;;;;;;;26.42;13.73;;;;;;;;;;6245981;23;20353;-57
2022/04/23 20:09:07;;;;;;;24.45;13.75;;;;;;;;;;6245669;23;20012;-55
2022/04/23 20:11:34;;;;;;;22.55;12.68;;;;;;;;;;6246711;23;20445;-65
2022/04/23 20:14:01;;;;;;;17.77;11.25;;;;;;;;;;6246608;22;20087;-58
2022/04/23 20:16:27;;;;;;;20.23;10.35;;;;;;;;;;6246009;23;20065;-59
2022/04/23 20:18:53;;;;;;;19.30;11.38;;;;;;;;;;6246063;22;20088;-58